createdAt,value
2023-04-01T00:01:17.139Z,98969.81
2023-04-01T00:03:44.010Z,98968.94
2023-04-01T00:06:14.643Z,98967.28
2023-04-01T00:08:41.383Z,98971.50
2023-04-01T00:11:08.042Z,98971.50
2023-04-01T00:13:34.721Z,98969.81
2023-04-01T00:16:03.401Z,98979.06
2023-04-01T00:18:31.275Z,98973.09
2023-04-01T00:20:57.924Z,98975.69
2023-04-01T00:23:24.558Z,98976.50
2023-04-01T00:25:51.469Z,98973.09
2023-04-01T00:28:20.403Z,98967.06
2023-04-01T00:30:48.005Z,98973.00
2023-04-01T00:33:14.948Z,98976.38
2023-04-01T00:35:42.795Z,98975.47
2023-04-01T00:38:09.527Z,98977.16
2023-04-01T00:40:41.642Z,98977.16
2023-04-01T00:43:20.285Z,98968.66
2023-04-01T00:45:49.665Z,98973.72
2023-04-01T00:48:23.508Z,98968.59
2023-04-01T00:50:55.935Z,98962.69
2023-04-01T00:53:23.905Z,98969.50
2023-04-01T00:56:00.663Z,98966.97
2023-04-01T00:58:30.689Z,98966.06
2023-04-01T01:00:59.811Z,98970.22
2023-04-01T01:03:26.682Z,98976.94
2023-04-01T01:06:12.278Z,98973.47
2023-04-01T01:08:44.637Z,98972.50
2023-04-01T01:11:13.194Z,98968.13
2023-04-01T01:13:59.461Z,98971.44
2023-04-01T01:16:32.484Z,98973.91
2023-04-01T01:19:13.636Z,98973.03
2023-04-01T01:22:00.475Z,98975.56
2023-04-01T01:24:36.075Z,98970.41
2023-04-01T01:27:12.876Z,98972.84
2023-04-01T01:30:13.920Z,98971.16
2023-04-01T01:33:19.829Z,98978.75
2023-04-01T01:35:52.804Z,98972.81
2023-04-01T01:38:23.646Z,98975.38
2023-04-01T01:40:54.707Z,98977.06
2023-04-01T01:43:39.664Z,98976.22
2023-04-01T01:46:11.741Z,98976.19
2023-04-01T01:48:39.549Z,98976.97
2023-04-01T01:51:06.699Z,98978.66
2023-04-01T01:53:33.392Z,98982.81
2023-04-01T01:56:00.122Z,98975.16
2023-04-01T01:58:36.667Z,98975.22
2023-04-01T02:01:06.912Z,98981.13
2023-04-01T02:03:40.529Z,98978.59
2023-04-01T02:06:11.902Z,98977.75
2023-04-01T02:08:48.213Z,98982.81
2023-04-01T02:11:20.845Z,98979.41
2023-04-01T02:13:59.239Z,98974.34
2023-04-01T02:16:32.644Z,98976.84
2023-04-01T02:19:02.544Z,98986.97
2023-04-01T02:21:33.116Z,98989.44
2023-04-01T02:24:03.071Z,98981.81
2023-04-01T02:26:30.650Z,98983.50
2023-04-01T02:29:00.095Z,98985.19
2023-04-01T02:31:26.919Z,98990.28
2023-04-01T02:33:54.483Z,98995.34
2023-04-01T02:36:21.798Z,98988.56
2023-04-01T02:38:50.657Z,98986.84
2023-04-01T02:41:17.774Z,98999.53
2023-04-01T02:43:44.453Z,98990.25
2023-04-01T02:46:11.204Z,98995.34
2023-04-01T02:48:38.208Z,98988.59
2023-04-01T02:51:04.963Z,98995.38
2023-04-01T02:53:31.620Z,98997.91
2023-04-01T02:55:58.293Z,98994.47
2023-04-01T02:58:24.927Z,98997.91
2023-04-01T03:00:51.797Z,98997.94
2023-04-01T03:03:18.853Z,99003.88
2023-04-01T03:05:45.534Z,99009.81
2023-04-01T03:08:12.816Z,99001.44
2023-04-01T03:10:39.569Z,98999.69
2023-04-01T03:13:07.155Z,99012.34
2023-04-01T03:15:34.083Z,99000.53
2023-04-01T03:18:01.153Z,99002.22
2023-04-01T03:20:27.816Z,99005.59
2023-04-01T03:22:54.466Z,99009.03
2023-04-01T03:25:21.415Z,99011.63
2023-04-01T03:27:48.078Z,99007.34
2023-04-01T03:30:14.806Z,99011.66
2023-04-01T03:32:41.553Z,99011.63
2023-04-01T03:35:10.557Z,99019.28
2023-04-01T03:37:37.748Z,99011.75
2023-04-01T03:40:04.913Z,99018.47
2023-04-01T03:42:33.212Z,99011.66
2023-04-01T03:45:00.124Z,99025.22
2023-04-01T03:47:26.810Z,99025.19
2023-04-01T03:49:53.594Z,99021.81
2023-04-01T03:52:20.330Z,99032.78
2023-04-01T03:54:46.984Z,99032.81
2023-04-01T03:57:13.788Z,99031.09
2023-04-01T03:59:40.470Z,99033.63
2023-04-01T04:02:07.147Z,99037.84
2023-04-01T04:04:33.856Z,99036.16
2023-04-01T04:07:00.543Z,99033.63
2023-04-01T04:09:27.227Z,99034.47
2023-04-01T04:11:53.960Z,99031.09
2023-04-01T04:14:20.603Z,99039.53
2023-04-01T04:16:47.273Z,99032.72
2023-04-01T04:19:13.982Z,99038.63
2023-04-01T04:21:41.784Z,99038.63
2023-04-01T04:24:08.775Z,99044.59
2023-04-01T04:26:35.882Z,99044.59
2023-04-01T04:29:03.175Z,99050.56
2023-04-01T04:31:29.901Z,99047.19
2023-04-01T04:33:56.646Z,99053.94
2023-04-01T04:36:23.502Z,99053.94
2023-04-01T04:38:50.023Z,99054.78
2023-04-01T04:41:19.082Z,99065.81
2023-04-01T04:43:53.959Z,99061.53
2023-04-01T04:46:21.623Z,99067.50
2023-04-01T04:48:48.168Z,99073.34
2023-04-01T04:51:20.194Z,99078.53
2023-04-01T04:53:47.834Z,99071.69
2023-04-01T04:56:17.942Z,99074.22
2023-04-01T04:58:44.405Z,99077.56
2023-04-01T05:01:13.027Z,99086.00
2023-04-01T05:03:39.821Z,99074.19
2023-04-01T05:06:07.563Z,99077.56
2023-04-01T05:08:34.909Z,99077.56
2023-04-01T05:11:02.384Z,99087.69
2023-04-01T05:13:29.220Z,99086.00
2023-04-01T05:15:55.948Z,99077.56
2023-04-01T05:18:22.914Z,99097.03
2023-04-01T05:20:54.392Z,99083.47
2023-04-01T05:23:22.689Z,99102.94
2023-04-01T05:25:50.685Z,99096.97
2023-04-01T05:28:17.870Z,99096.16
2023-04-01T05:30:45.338Z,99097.78
2023-04-01T05:33:13.351Z,99104.69
2023-04-01T05:35:41.167Z,99110.59
2023-04-01T05:38:08.236Z,99113.09
2023-04-01T05:40:35.568Z,99108.84
2023-04-01T05:43:02.122Z,99110.59
2023-04-01T05:45:28.717Z,99119.03
2023-04-01T05:47:55.411Z,99108.00
2023-04-01T05:50:21.915Z,99109.72
2023-04-01T05:52:48.397Z,99121.59
2023-04-01T05:55:14.882Z,99117.38
2023-04-01T05:57:41.714Z,99119.06
2023-04-01T06:00:08.629Z,99119.97
2023-04-01T06:02:35.162Z,99121.69
2023-04-01T06:05:14.340Z,99125.06
2023-04-01T06:07:40.972Z,99133.47
2023-04-01T06:10:16.282Z,99134.34
2023-04-01T06:13:01.485Z,99130.09
2023-04-01T06:15:40.911Z,99135.16
2023-04-01T06:18:54.017Z,99135.97
2023-04-01T06:21:38.903Z,99139.44
2023-04-01T06:24:29.500Z,99145.41
2023-04-01T06:27:22.446Z,99149.66
2023-04-01T06:29:59.220Z,99148.84
2023-04-01T06:32:31.560Z,99152.31
2023-04-01T06:35:18.790Z,99154.06
2023-04-01T06:38:18.621Z,99160.00
2023-04-01T06:40:57.507Z,99160.91
2023-04-01T06:43:42.963Z,99166.91
2023-04-01T06:46:37.452Z,99166.09
2023-04-01T06:49:06.766Z,99172.88
2023-04-01T06:51:46.677Z,99172.06
2023-04-01T06:54:19.642Z,99176.28
2023-04-01T06:56:51.672Z,99180.56
2023-04-01T06:59:23.224Z,99176.28
2023-04-01T07:02:06.635Z,99184.91
2023-04-01T07:04:42.041Z,99180.75
2023-04-01T07:07:34.203Z,99189.25
2023-04-01T07:10:06.099Z,99185.00
2023-04-01T07:12:32.667Z,99196.84
2023-04-01T07:15:04.935Z,99190.03
2023-04-01T07:17:36.362Z,99199.31
2023-04-01T07:20:27.728Z,99202.66
2023-04-01T07:23:03.686Z,99205.13
2023-04-01T07:25:36.432Z,99205.94
2023-04-01T07:28:12.969Z,99212.72
2023-04-01T07:31:04.582Z,99216.94
2023-04-01T07:33:57.835Z,99209.31
2023-04-01T07:36:47.276Z,99221.13
2023-04-01T07:39:53.450Z,99232.91
2023-04-01T07:42:23.010Z,99240.44
2023-04-01T07:45:08.606Z,99247.06
2023-04-01T07:47:48.798Z,99247.09
2023-04-01T07:50:29.855Z,99262.06
2023-04-01T07:53:18.002Z,99268.84
2023-04-01T07:56:01.194Z,99267.44
2023-04-01T07:58:33.775Z,99269.16
2023-04-01T08:01:10.075Z,99282.44
2023-04-01T08:03:46.524Z,99285.56
2023-04-01T08:06:26.531Z,99289.69
2023-04-01T08:09:04.471Z,99299.44
2023-04-01T08:11:43.481Z,99299.41
2023-04-01T08:14:18.895Z,99310.34
2023-04-01T08:17:03.142Z,99308.03
2023-04-01T08:19:57.459Z,99321.25
2023-04-01T08:22:42.659Z,99323.38
2023-04-01T08:25:18.695Z,99328.81
2023-04-01T08:28:06.946Z,99339.44
2023-04-01T08:30:45.091Z,99327.34
2023-04-01T08:33:22.473Z,99339.78
2023-04-01T08:36:12.796Z,99349.91
2023-04-01T08:38:55.445Z,99346.22
2023-04-01T08:41:28.541Z,99355.47
2023-04-01T08:44:19.726Z,99356.31
2023-04-01T08:47:10.776Z,99355.47
2023-04-01T08:49:48.487Z,99364.06
2023-04-01T08:52:32.853Z,99370.41
2023-04-01T08:55:30.394Z,99365.13
2023-04-01T08:58:20.500Z,99376.81
2023-04-01T09:01:17.792Z,99379.38
2023-04-01T09:03:58.450Z,99373.75
2023-04-01T09:06:34.337Z,99380.38
2023-04-01T09:09:21.496Z,99382.84
2023-04-01T09:12:24.477Z,99390.22
2023-04-01T09:15:06.390Z,99395.03
2023-04-01T09:17:50.974Z,99404.06
2023-04-01T09:20:40.425Z,99402.44
2023-04-01T09:23:34.418Z,99408.00
2023-04-01T09:26:19.088Z,99417.22
2023-04-01T09:29:10.858Z,99411.06
2023-04-01T09:31:43.978Z,99412.84
2023-04-01T09:34:39.904Z,99417.97
2023-04-01T09:37:34.813Z,99423.28
2023-04-01T09:40:21.275Z,99428.34
2023-04-01T09:43:04.834Z,99432.75
2023-04-01T09:45:36.418Z,99436.81
2023-04-01T09:48:18.028Z,99434.09
2023-04-01T09:51:27.588Z,99443.19
2023-04-01T09:54:29.508Z,99451.88
2023-04-01T09:57:16.131Z,99462.13
2023-04-01T10:00:11.669Z,99458.59
2023-04-01T10:02:55.141Z,99470.53
2023-04-01T10:05:46.388Z,99479.81
2023-04-01T10:08:26.584Z,99470.84
2023-04-01T10:10:53.162Z,99482.50
2023-04-01T10:13:48.262Z,99482.22
2023-04-01T10:17:01.832Z,99486.13
2023-04-01T10:20:02.024Z,99488.78
2023-04-01T10:22:59.031Z,99491.25
2023-04-01T10:25:43.357Z,99485.94
2023-04-01T10:28:49.722Z,99499.31
2023-04-01T10:31:51.599Z,99508.22
2023-04-01T10:34:43.607Z,99513.28
2023-04-01T10:37:28.920Z,99508.97
2023-04-01T10:40:21.022Z,99509.94
2023-04-01T10:43:07.707Z,99518.59
2023-04-01T10:46:10.405Z,99519.16
2023-04-01T10:49:14.551Z,99531.66
2023-04-01T10:52:12.645Z,99523.84
2023-04-01T10:54:57.024Z,99532.34
2023-04-01T10:57:45.114Z,99543.22
2023-04-01T11:00:40.320Z,99533.25
2023-04-01T11:03:41.824Z,99545.22
2023-04-01T11:06:52.708Z,99543.41
2023-04-01T11:09:43.962Z,99550.97
2023-04-01T11:12:27.123Z,99558.66
2023-04-01T11:15:00.444Z,99548.38
2023-04-01T11:17:46.657Z,99561.88
2023-04-01T11:20:52.229Z,99556.81
2023-04-01T11:23:37.419Z,99574.53
2023-04-01T11:26:30.294Z,99571.78
2023-04-01T11:29:05.658Z,99571.06
2023-04-01T11:31:41.195Z,99587.72
2023-04-01T11:34:36.306Z,99585.34
2023-04-01T11:37:21.521Z,99586.06
2023-04-01T11:40:03.314Z,99581.09
2023-04-01T11:42:29.691Z,99586.28
2023-04-01T11:45:29.543Z,99598.19
2023-04-01T11:48:33.875Z,99602.03
2023-04-01T11:51:32.287Z,99613.16
2023-04-01T11:54:12.750Z,99620.63
2023-04-01T11:56:52.759Z,99620.56
2023-04-01T11:59:46.346Z,99635.94
2023-04-01T12:03:02.023Z,99630.94
2023-04-01T12:06:09.877Z,99638.81
2023-04-01T12:09:16.116Z,99644.59
2023-04-01T12:11:42.604Z,99645.34
2023-04-01T12:14:20.510Z,99649.28
2023-04-01T12:16:51.409Z,99662.63
2023-04-01T12:19:46.000Z,99661.91
2023-04-01T12:22:36.205Z,99654.50
2023-04-01T12:25:20.453Z,99667.19
2023-04-01T12:28:02.281Z,99671.50
2023-04-01T12:30:43.479Z,99664.97
2023-04-01T12:33:34.134Z,99668.25
2023-04-01T12:36:12.769Z,99676.41
2023-04-01T12:39:26.191Z,99676.94
2023-04-01T12:42:38.425Z,99678.59
2023-04-01T12:45:47.683Z,99683.03
2023-04-01T12:48:22.987Z,99702.34
2023-04-01T12:50:58.508Z,99695.72
2023-04-01T12:54:04.110Z,99688.16
2023-04-01T12:56:39.666Z,99710.06
2023-04-01T12:59:15.346Z,99710.66
2023-04-01T13:01:59.210Z,99714.97
2023-04-01T13:04:56.901Z,99723.03
2023-04-01T13:07:29.901Z,99723.47
2023-04-01T13:10:08.023Z,99730.81
2023-04-01T13:12:59.465Z,99735.56
2023-04-01T13:15:32.244Z,99736.34
2023-04-01T13:18:23.903Z,99742.25
2023-04-01T13:21:14.797Z,99754.69
2023-04-01T13:23:56.621Z,99757.63
2023-04-01T13:26:35.714Z,99747.31
2023-04-01T13:29:16.484Z,99761.50
2023-04-01T13:31:53.270Z,99767.34
2023-04-01T13:34:56.772Z,99766.63
2023-04-01T13:37:51.662Z,99778.25
2023-04-01T13:40:24.209Z,99786.44
2023-04-01T13:42:56.565Z,99787.31
2023-04-01T13:45:38.636Z,99788.59
2023-04-01T13:48:20.022Z,99807.78
2023-04-01T13:51:12.603Z,99800.94
2023-04-01T13:53:57.841Z,99798.25
2023-04-01T13:57:01.605Z,99805.56
2023-04-01T14:00:17.740Z,99816.34
2023-04-01T14:03:15.336Z,99824.88
2023-04-01T14:06:03.162Z,99823.28
2023-04-01T14:08:54.290Z,99825.00
2023-04-01T14:11:32.142Z,99827.38
2023-04-01T14:14:31.261Z,99831.56
2023-04-01T14:17:28.822Z,99836.41
2023-04-01T14:20:20.169Z,99843.56
2023-04-01T14:23:25.155Z,99845.69
2023-04-01T14:25:51.573Z,99853.69
2023-04-01T14:28:45.755Z,99854.38
2023-04-01T14:31:31.317Z,99872.81
2023-04-01T14:34:26.104Z,99864.22
2023-04-01T14:37:26.407Z,99879.16
2023-04-01T14:40:18.393Z,99868.28
2023-04-01T14:43:23.746Z,99876.72
2023-04-01T14:46:14.727Z,99886.25
2023-04-01T14:48:43.835Z,99891.28
2023-04-01T14:51:17.887Z,99889.47
2023-04-01T14:54:00.487Z,99891.91
2023-04-01T14:57:15.901Z,99895.13
2023-04-01T14:59:50.406Z,99896.69
2023-04-01T15:02:46.094Z,99907.22
2023-04-01T15:05:46.341Z,99911.28
2023-04-01T15:08:33.618Z,99916.91
2023-04-01T15:11:38.582Z,99919.97
2023-04-01T15:14:40.742Z,99926.72
2023-04-01T15:17:28.699Z,99940.28
2023-04-01T15:20:23.094Z,99936.91
2023-04-01T15:23:04.513Z,99940.09
2023-04-01T15:26:01.346Z,99946.16
2023-04-01T15:28:46.580Z,99959.97
2023-04-01T15:31:21.281Z,99968.19
2023-04-01T15:33:50.778Z,99972.38
2023-04-01T15:36:36.127Z,99970.53
2023-04-01T15:39:08.496Z,99976.44
2023-04-01T15:42:11.802Z,99966.22
2023-04-01T15:44:58.770Z,99980.50
2023-04-01T15:47:25.407Z,99983.97
2023-04-01T15:50:00.974Z,99995.53
2023-04-01T15:52:50.030Z,99986.16
2023-04-01T15:55:43.983Z,100007.91
2023-04-01T15:58:35.297Z,100005.06
2023-04-01T16:01:29.852Z,100004.59
2023-04-01T16:04:15.312Z,100019.69
2023-04-01T16:06:57.966Z,100030.16
2023-04-01T16:09:54.312Z,100031.91
2023-04-01T16:12:42.632Z,100043.72
2023-04-01T16:15:27.838Z,100046.91
2023-04-01T16:18:03.428Z,100044.78
2023-04-01T16:20:50.911Z,100062.50
2023-04-01T16:23:30.968Z,100058.16
2023-04-01T16:26:09.283Z,100066.28
2023-04-01T16:28:54.876Z,100069.31
2023-04-01T16:31:25.935Z,100073.44
2023-04-01T16:34:20.639Z,100076.75
2023-04-01T16:36:55.759Z,100078.28
2023-04-01T16:39:51.155Z,100083.22
2023-04-01T16:42:32.106Z,100092.72
2023-04-01T16:45:34.593Z,100094.38
2023-04-01T16:48:14.533Z,100104.25
2023-04-01T16:51:05.496Z,100107.34
2023-04-01T16:53:43.980Z,100112.47
2023-04-01T16:56:25.878Z,100113.31
2023-04-01T16:58:55.338Z,100134.13
2023-04-01T17:01:27.126Z,100130.06
2023-04-01T17:04:08.877Z,100145.13
2023-04-01T17:06:54.575Z,100144.16
2023-04-01T17:09:55.372Z,100162.50
2023-04-01T17:12:48.434Z,100159.59
2023-04-01T17:15:23.313Z,100171.97
2023-04-01T17:18:08.231Z,100159.72
2023-04-01T17:20:46.936Z,100170.03
2023-04-01T17:23:21.183Z,100177.41
2023-04-01T17:26:05.485Z,100183.84
2023-04-01T17:28:49.032Z,100186.00
2023-04-01T17:31:36.654Z,100204.44
2023-04-01T17:34:22.153Z,100204.34
2023-04-01T17:37:30.031Z,100213.53
2023-04-01T17:40:34.432Z,100215.91
2023-04-01T17:43:10.272Z,100227.50
2023-04-01T17:46:20.630Z,100234.28
2023-04-01T17:48:55.777Z,100246.84
2023-04-01T17:51:49.521Z,100246.56
2023-04-01T17:54:25.685Z,100253.13
2023-04-01T17:57:29.918Z,100265.44
2023-04-01T18:00:30.130Z,100268.75
2023-04-01T18:03:13.304Z,100277.69
2023-04-01T18:05:51.501Z,100279.34
2023-04-01T18:08:41.889Z,100280.88
2023-04-01T18:11:40.051Z,100286.75
2023-04-01T18:14:50.983Z,100297.28
2023-04-01T18:17:26.596Z,100322.50
2023-04-01T18:20:15.899Z,100325.34
2023-04-01T18:23:03.613Z,100330.06
2023-04-01T18:25:38.205Z,100323.44
2023-04-01T18:28:13.522Z,100337.59
2023-04-01T18:30:41.298Z,100341.63
2023-04-01T18:33:22.356Z,100330.84
2023-04-01T18:35:55.415Z,100348.19
2023-04-01T18:38:46.527Z,100361.63
2023-04-01T18:41:15.770Z,100373.09
2023-04-01T18:44:19.675Z,100381.59
2023-04-01T18:46:58.828Z,100379.88
2023-04-01T18:49:41.888Z,100384.91
2023-04-01T18:52:23.705Z,100386.41
2023-04-01T18:55:22.039Z,100392.50
2023-04-01T18:57:51.887Z,100402.56
2023-04-01T19:00:18.345Z,100398.19
2023-04-01T19:02:54.786Z,100412.50
2023-04-01T19:05:32.890Z,100411.53
2023-04-01T19:08:29.781Z,100417.53
2023-04-01T19:11:18.568Z,100428.31
2023-04-01T19:14:22.064Z,100424.16
2023-04-01T19:17:06.938Z,100439.16
2023-04-01T19:19:53.073Z,100435.00
2023-04-01T19:22:41.301Z,100447.41
2023-04-01T19:25:22.768Z,100452.66
2023-04-01T19:27:56.645Z,100453.44
2023-04-01T19:30:30.515Z,100462.16
2023-04-01T19:33:23.185Z,100468.50
2023-04-01T19:36:01.606Z,100470.03
2023-04-01T19:38:35.995Z,100467.94
2023-04-01T19:41:26.325Z,100486.38
2023-04-01T19:44:17.364Z,100487.78
2023-04-01T19:46:56.482Z,100498.38
2023-04-01T19:49:26.112Z,100501.75
2023-04-01T19:52:11.316Z,100499.88
2023-04-01T19:54:52.930Z,100507.84
2023-04-01T19:57:36.093Z,100512.22
2023-04-01T20:00:24.181Z,100522.25
2023-04-01T20:03:05.817Z,100531.06
2023-04-01T20:05:53.768Z,100540.09
2023-04-01T20:08:47.252Z,100535.63
2023-04-01T20:11:24.442Z,100538.88
2023-04-01T20:14:01.761Z,100556.78
2023-04-01T20:17:07.308Z,100560.06
2023-04-01T20:19:41.991Z,100564.44
2023-04-01T20:22:26.990Z,100565.19
2023-04-01T20:24:56.475Z,100574.25
2023-04-01T20:27:27.869Z,100575.13
2023-04-01T20:30:04.499Z,100598.56
2023-04-01T20:32:40.932Z,100599.44
2023-04-01T20:35:32.360Z,100607.59
2023-04-01T20:38:29.905Z,100609.91
2023-04-01T20:41:21.350Z,100620.97
2023-04-01T20:44:12.041Z,100615.91
2023-04-01T20:47:01.642Z,100621.97
2023-04-01T20:49:46.594Z,100630.53
2023-04-01T20:52:12.994Z,100627.78
2023-04-01T20:54:57.899Z,100639.81
2023-04-01T20:57:36.500Z,100640.13
2023-04-01T21:00:15.451Z,100651.56
2023-04-01T21:03:17.502Z,100653.44
2023-04-01T21:05:56.379Z,100647.19
2023-04-01T21:08:48.863Z,100657.72
2023-04-01T21:11:43.443Z,100662.25
2023-04-01T21:14:36.470Z,100672.53
2023-04-01T21:17:14.422Z,100674.69
2023-04-01T21:20:12.556Z,100680.09
2023-04-01T21:22:56.247Z,100685.97
2023-04-01T21:25:29.745Z,100681.47
2023-04-01T21:28:21.122Z,100683.72
2023-04-01T21:31:09.269Z,100691.97
2023-04-01T21:33:47.716Z,100702.50
2023-04-01T21:36:32.067Z,100703.25
2023-04-01T21:39:34.740Z,100706.25
2023-04-01T21:42:29.985Z,100734.56
2023-04-01T21:45:07.195Z,100729.41
2023-04-01T21:47:45.840Z,100721.25
2023-04-01T21:50:40.394Z,100742.44
2023-04-01T21:53:44.302Z,100740.41
2023-04-01T21:56:38.272Z,100741.28
2023-04-01T21:59:46.030Z,100756.81
2023-04-01T22:02:33.982Z,100746.69
2023-04-01T22:05:05.436Z,100758.94
2023-04-01T22:07:53.408Z,100768.69
2023-04-01T22:10:34.137Z,100788.47
2023-04-01T22:13:10.974Z,100792.59
2023-04-01T22:16:10.320Z,100788.47
2023-04-01T22:18:50.251Z,100795.97
2023-04-01T22:21:28.032Z,100801.47
2023-04-01T22:24:09.489Z,100794.44
2023-04-01T22:26:54.571Z,100803.44
2023-04-01T22:29:28.196Z,100803.19
2023-04-01T22:32:13.564Z,100813.69
2023-04-01T22:34:44.578Z,100815.19
2023-04-01T22:37:27.649Z,100820.81
2023-04-01T22:40:09.479Z,100820.66
2023-04-01T22:42:44.243Z,100825.56
2023-04-01T22:45:13.709Z,100826.78
2023-04-01T22:47:45.487Z,100833.25
2023-04-01T22:50:18.721Z,100835.66
2023-04-01T22:52:49.176Z,100843.88
2023-04-01T22:55:25.647Z,100842.88
2023-04-01T22:58:01.371Z,100846.63
2023-04-01T23:00:33.270Z,100849.88
2023-04-01T23:03:18.265Z,100851.38
2023-04-01T23:05:56.556Z,100854.34
2023-04-01T23:08:41.822Z,100851.69
2023-04-01T23:11:15.144Z,100856.44
2023-04-01T23:13:49.240Z,100863.94
2023-04-01T23:16:19.019Z,100873.81
2023-04-01T23:19:01.444Z,100879.56
2023-04-01T23:21:43.562Z,100884.16
2023-04-01T23:24:27.839Z,100884.63
2023-04-01T23:27:17.787Z,100898.63
2023-04-01T23:29:44.608Z,100907.75
2023-04-01T23:32:17.938Z,100907.44
2023-04-01T23:34:57.991Z,100905.31
2023-04-01T23:37:25.494Z,100912.91
2023-04-01T23:39:55.332Z,100919.09
2023-04-01T23:42:26.132Z,100917.44
2023-04-01T23:44:56.965Z,100908.53
2023-04-01T23:47:34.623Z,100928.31
2023-04-01T23:50:11.898Z,100931.59
2023-04-01T23:52:47.461Z,100927.91
2023-04-01T23:55:17.934Z,100932.91
2023-04-01T23:58:03.132Z,100936.31
